sensor_id;sensor_type;location;lat;lon;timestamp;P1;durP1;ratioP1;P2;durP2;ratioP2
52564;SDS011;38460;53.106;7.004;2022-08-21T00:01:02;8.43;;;5.63;;
52564;SDS011;38460;53.106;7.004;2022-08-21T00:03:31;8.48;;;5.82;;
52564;SDS011;38460;53.106;7.004;2022-08-21T00:05:57;9.88;;;4.88;;
52564;SDS011;38460;53.106;7.004;2022-08-21T00:08:23;10.35;;;5.53;;
52564;SDS011;38460;53.106;7.004;2022-08-21T00:10:49;6.07;;;4.78;;
52564;SDS011;38460;53.106;7.004;2022-08-21T00:13:16;10.30;;;5.60;;
52564;SDS011;38460;53.106;7.004;2022-08-21T00:15:44;9.02;;;5.53;;
52564;SDS011;38460;53.106;7.004;2022-08-21T00:18:11;9.10;;;6.10;;
52564;SDS011;38460;53.106;7.004;2022-08-21T00:20:38;7.18;;;5.70;;
52564;SDS011;38460;53.106;7.004;2022-08-21T00:23:05;11.80;;;6.40;;
52564;SDS011;38460;53.106;7.004;2022-08-21T00:25:31;10.00;;;5.93;;
52564;SDS011;38460;53.106;7.004;2022-08-21T00:27:58;9.32;;;6.30;;
52564;SDS011;38460;53.106;7.004;2022-08-21T00:30:24;7.65;;;5.28;;
52564;SDS011;38460;53.106;7.004;2022-08-21T00:32:52;9.40;;;5.40;;
52564;SDS011;38460;53.106;7.004;2022-08-21T00:35:21;9.10;;;6.00;;
52564;SDS011;38460;53.106;7.004;2022-08-21T00:37:49;12.18;;;5.88;;
52564;SDS011;38460;53.106;7.004;2022-08-21T00:40:16;9.73;;;5.93;;
52564;SDS011;38460;53.106;7.004;2022-08-21T00:42:45;9.95;;;5.82;;
52564;SDS011;38460;53.106;7.004;2022-08-21T00:45:11;11.07;;;6.18;;
52564;SDS011;38460;53.106;7.004;2022-08-21T00:47:37;10.02;;;5.80;;
52564;SDS011;38460;53.106;7.004;2022-08-21T00:50:04;9.68;;;5.95;;
52564;SDS011;38460;53.106;7.004;2022-08-21T00:52:32;7.57;;;5.65;;
52564;SDS011;38460;53.106;7.004;2022-08-21T00:55:00;5.80;;;4.60;;
52564;SDS011;38460;53.106;7.004;2022-08-21T00:57:31;10.07;;;6.03;;
52564;SDS011;38460;53.106;7.004;2022-08-21T01:00:03;8.18;;;5.75;;
52564;SDS011;38460;53.106;7.004;2022-08-21T01:02:32;10.63;;;5.32;;
52564;SDS011;38460;53.106;7.004;2022-08-21T01:04:58;9.43;;;6.22;;
52564;SDS011;38460;53.106;7.004;2022-08-21T01:07:24;8.05;;;5.78;;
52564;SDS011;38460;53.106;7.004;2022-08-21T01:09:50;9.52;;;6.35;;
52564;SDS011;38460;53.106;7.004;2022-08-21T01:12:16;7.82;;;5.28;;
52564;SDS011;38460;53.106;7.004;2022-08-21T01:14:43;9.68;;;5.90;;
52564;SDS011;38460;53.106;7.004;2022-08-21T01:17:10;8.63;;;5.97;;
52564;SDS011;38460;53.106;7.004;2022-08-21T01:19:38;13.23;;;5.63;;
52564;SDS011;38460;53.106;7.004;2022-08-21T01:22:04;9.00;;;5.88;;
52564;SDS011;38460;53.106;7.004;2022-08-21T01:24:30;9.88;;;6.50;;
52564;SDS011;38460;53.106;7.004;2022-08-21T01:26:59;10.98;;;6.63;;
52564;SDS011;38460;53.106;7.004;2022-08-21T01:31:55;10.43;;;5.78;;
52564;SDS011;38460;53.106;7.004;2022-08-21T01:34:21;10.43;;;5.88;;
52564;SDS011;38460;53.106;7.004;2022-08-21T01:36:47;11.50;;;6.82;;
52564;SDS011;38460;53.106;7.004;2022-08-21T01:39:14;8.57;;;5.85;;
52564;SDS011;38460;53.106;7.004;2022-08-21T01:41:40;8.15;;;6.63;;
52564;SDS011;38460;53.106;7.004;2022-08-21T01:44:06;9.48;;;6.22;;
52564;SDS011;38460;53.106;7.004;2022-08-21T01:46:32;9.90;;;5.97;;
52564;SDS011;38460;53.106;7.004;2022-08-21T01:48:59;7.97;;;6.15;;
52564;SDS011;38460;53.106;7.004;2022-08-21T01:51:24;10.52;;;6.75;;
52564;SDS011;38460;53.106;7.004;2022-08-21T01:53:50;8.55;;;6.20;;
52564;SDS011;38460;53.106;7.004;2022-08-21T01:56:16;9.40;;;7.03;;
52564;SDS011;38460;53.106;7.004;2022-08-21T01:58:45;8.35;;;6.38;;
52564;SDS011;38460;53.106;7.004;2022-08-21T02:01:12;9.32;;;7.20;;
52564;SDS011;38460;53.106;7.004;2022-08-21T02:03:39;11.40;;;7.32;;
52564;SDS011;38460;53.106;7.004;2022-08-21T02:06:05;10.35;;;6.95;;
52564;SDS011;38460;53.106;7.004;2022-08-21T02:08:32;9.23;;;6.72;;
52564;SDS011;38460;53.106;7.004;2022-08-21T02:10:58;9.55;;;6.95;;
52564;SDS011;38460;53.106;7.004;2022-08-21T02:13:25;8.95;;;6.07;;
52564;SDS011;38460;53.106;7.004;2022-08-21T02:15:51;10.85;;;6.68;;
52564;SDS011;38460;53.106;7.004;2022-08-21T02:18:17;9.15;;;6.53;;
52564;SDS011;38460;53.106;7.004;2022-08-21T02:20:44;8.77;;;6.70;;
52564;SDS011;38460;53.106;7.004;2022-08-21T02:23:12;9.13;;;6.32;;
52564;SDS011;38460;53.106;7.004;2022-08-21T02:25:39;9.95;;;5.97;;
52564;SDS011;38460;53.106;7.004;2022-08-21T02:28:06;9.60;;;6.18;;
52564;SDS011;38460;53.106;7.004;2022-08-21T02:30:37;9.70;;;6.25;;
52564;SDS011;38460;53.106;7.004;2022-08-21T02:33:08;9.43;;;5.63;;
52564;SDS011;38460;53.106;7.004;2022-08-21T02:35:36;7.63;;;5.82;;
52564;SDS011;38460;53.106;7.004;2022-08-21T02:38:04;7.88;;;6.00;;
52564;SDS011;38460;53.106;7.004;2022-08-21T02:40:34;10.15;;;6.72;;
52564;SDS011;38460;53.106;7.004;2022-08-21T02:43:02;11.80;;;6.13;;
52564;SDS011;38460;53.106;7.004;2022-08-21T02:45:29;8.70;;;5.45;;
52564;SDS011;38460;53.106;7.004;2022-08-21T02:47:56;7.65;;;6.10;;
52564;SDS011;38460;53.106;7.004;2022-08-21T02:50:30;9.10;;;6.43;;
52564;SDS011;38460;53.106;7.004;2022-08-21T02:52:58;10.60;;;6.93;;
52564;SDS011;38460;53.106;7.004;2022-08-21T02:55:25;8.82;;;5.93;;
52564;SDS011;38460;53.106;7.004;2022-08-21T02:57:53;11.45;;;6.43;;
52564;SDS011;38460;53.106;7.004;2022-08-21T03:00:21;10.63;;;5.72;;
52564;SDS011;38460;53.106;7.004;2022-08-21T03:02:48;11.73;;;5.80;;
52564;SDS011;38460;53.106;7.004;2022-08-21T03:05:15;11.90;;;6.82;;
52564;SDS011;38460;53.106;7.004;2022-08-21T03:07:42;12.77;;;6.82;;
52564;SDS011;38460;53.106;7.004;2022-08-21T03:10:10;9.98;;;6.60;;
52564;SDS011;38460;53.106;7.004;2022-08-21T03:12:36;8.70;;;6.25;;
52564;SDS011;38460;53.106;7.004;2022-08-21T03:15:03;10.27;;;6.72;;
52564;SDS011;38460;53.106;7.004;2022-08-21T03:17:30;11.20;;;6.80;;
52564;SDS011;38460;53.106;7.004;2022-08-21T03:19:56;14.85;;;6.95;;
52564;SDS011;38460;53.106;7.004;2022-08-21T03:22:22;11.63;;;7.03;;
52564;SDS011;38460;53.106;7.004;2022-08-21T03:24:47;11.07;;;7.70;;
52564;SDS011;38460;53.106;7.004;2022-08-21T03:27:13;14.48;;;8.15;;
52564;SDS011;38460;53.106;7.004;2022-08-21T03:29:39;12.13;;;7.32;;
52564;SDS011;38460;53.106;7.004;2022-08-21T03:32:07;12.25;;;7.47;;
52564;SDS011;38460;53.106;7.004;2022-08-21T03:34:35;13.05;;;7.80;;
52564;SDS011;38460;53.106;7.004;2022-08-21T03:37:02;9.77;;;7.63;;
52564;SDS011;38460;53.106;7.004;2022-08-21T03:39:29;23.58;;;9.93;;
52564;SDS011;38460;53.106;7.004;2022-08-21T03:41:54;12.80;;;8.88;;
52564;SDS011;38460;53.106;7.004;2022-08-21T03:44:20;15.27;;;9.55;;
52564;SDS011;38460;53.106;7.004;2022-08-21T03:46:46;15.77;;;8.93;;
52564;SDS011;38460;53.106;7.004;2022-08-21T03:49:12;14.18;;;10.20;;
52564;SDS011;38460;53.106;7.004;2022-08-21T03:51:38;14.95;;;9.82;;
52564;SDS011;38460;53.106;7.004;2022-08-21T03:54:04;13.75;;;8.88;;
52564;SDS011;38460;53.106;7.004;2022-08-21T03:56:30;12.38;;;9.13;;
52564;SDS011;38460;53.106;7.004;2022-08-21T03:58:56;11.70;;;8.43;;
52564;SDS011;38460;53.106;7.004;2022-08-21T04:01:22;11.05;;;8.45;;
52564;SDS011;38460;53.106;7.004;2022-08-21T04:03:47;12.82;;;8.88;;
52564;SDS011;38460;53.106;7.004;2022-08-21T04:06:13;13.52;;;7.93;;
52564;SDS011;38460;53.106;7.004;2022-08-21T04:08:39;12.32;;;8.52;;
52564;SDS011;38460;53.106;7.004;2022-08-21T04:11:08;9.35;;;6.97;;
52564;SDS011;38460;53.106;7.004;2022-08-21T04:13:35;12.65;;;7.25;;
52564;SDS011;38460;53.106;7.004;2022-08-21T04:16:02;13.40;;;7.80;;
52564;SDS011;38460;53.106;7.004;2022-08-21T04:18:28;10.55;;;7.22;;
52564;SDS011;38460;53.106;7.004;2022-08-21T04:20:54;14.93;;;7.93;;
52564;SDS011;38460;53.106;7.004;2022-08-21T04:23:22;12.35;;;6.97;;
52564;SDS011;38460;53.106;7.004;2022-08-21T04:25:48;11.98;;;7.55;;
52564;SDS011;38460;53.106;7.004;2022-08-21T04:28:15;10.07;;;7.60;;
52564;SDS011;38460;53.106;7.004;2022-08-21T04:30:40;11.00;;;6.97;;
52564;SDS011;38460;53.106;7.004;2022-08-21T04:33:06;12.13;;;7.05;;
52564;SDS011;38460;53.106;7.004;2022-08-21T04:35:32;9.88;;;6.75;;
52564;SDS011;38460;53.106;7.004;2022-08-21T04:37:58;13.98;;;7.90;;
52564;SDS011;38460;53.106;7.004;2022-08-21T04:40:25;9.93;;;7.18;;
52564;SDS011;38460;53.106;7.004;2022-08-21T04:42:52;10.98;;;7.82;;
52564;SDS011;38460;53.106;7.004;2022-08-21T04:45:39;11.45;;;8.32;;
52564;SDS011;38460;53.106;7.004;2022-08-21T04:48:09;10.10;;;7.13;;
52564;SDS011;38460;53.106;7.004;2022-08-21T04:50:43;14.73;;;8.55;;
52564;SDS011;38460;53.106;7.004;2022-08-21T04:53:30;12.52;;;7.45;;
52564;SDS011;38460;53.106;7.004;2022-08-21T04:56:20;10.80;;;7.45;;
52564;SDS011;38460;53.106;7.004;2022-08-21T04:58:50;11.00;;;7.32;;
52564;SDS011;38460;53.106;7.004;2022-08-21T05:01:19;11.38;;;7.15;;
52564;SDS011;38460;53.106;7.004;2022-08-21T05:03:47;8.80;;;7.30;;
52564;SDS011;38460;53.106;7.004;2022-08-21T05:06:15;12.38;;;8.15;;
52564;SDS011;38460;53.106;7.004;2022-08-21T05:08:42;8.80;;;7.47;;
52564;SDS011;38460;53.106;7.004;2022-08-21T05:11:10;10.35;;;7.78;;
52564;SDS011;38460;53.106;7.004;2022-08-21T05:13:36;10.05;;;6.90;;
52564;SDS011;38460;53.106;7.004;2022-08-21T05:16:02;16.17;;;8.10;;
52564;SDS011;38460;53.106;7.004;2022-08-21T05:18:28;11.98;;;7.85;;
52564;SDS011;38460;53.106;7.004;2022-08-21T05:20:54;10.45;;;7.15;;
52564;SDS011;38460;53.106;7.004;2022-08-21T05:23:19;10.93;;;7.13;;
52564;SDS011;38460;53.106;7.004;2022-08-21T05:25:45;9.20;;;6.95;;
52564;SDS011;38460;53.106;7.004;2022-08-21T05:28:11;10.55;;;7.40;;
52564;SDS011;38460;53.106;7.004;2022-08-21T05:30:37;9.27;;;7.03;;
52564;SDS011;38460;53.106;7.004;2022-08-21T05:33:05;11.80;;;7.57;;
52564;SDS011;38460;53.106;7.004;2022-08-21T05:35:31;11.25;;;7.13;;
52564;SDS011;38460;53.106;7.004;2022-08-21T05:37:58;10.85;;;7.15;;
52564;SDS011;38460;53.106;7.004;2022-08-21T05:40:25;12.50;;;6.80;;
52564;SDS011;38460;53.106;7.004;2022-08-21T05:42:51;11.18;;;7.30;;
52564;SDS011;38460;53.106;7.004;2022-08-21T05:45:18;10.23;;;7.45;;
52564;SDS011;38460;53.106;7.004;2022-08-21T05:47:44;11.20;;;7.10;;
52564;SDS011;38460;53.106;7.004;2022-08-21T05:50:10;10.27;;;7.22;;
52564;SDS011;38460;53.106;7.004;2022-08-21T05:52:36;12.77;;;8.15;;
52564;SDS011;38460;53.106;7.004;2022-08-21T05:55:02;13.25;;;7.47;;
52564;SDS011;38460;53.106;7.004;2022-08-21T05:57:29;11.57;;;7.28;;
52564;SDS011;38460;53.106;7.004;2022-08-21T05:59:55;12.27;;;7.75;;
52564;SDS011;38460;53.106;7.004;2022-08-21T06:02:21;13.80;;;8.02;;
52564;SDS011;38460;53.106;7.004;2022-08-21T06:04:47;16.10;;;8.02;;
52564;SDS011;38460;53.106;7.004;2022-08-21T06:07:13;12.50;;;7.40;;
52564;SDS011;38460;53.106;7.004;2022-08-21T06:09:40;14.50;;;7.85;;
52564;SDS011;38460;53.106;7.004;2022-08-21T06:12:10;10.98;;;7.32;;
52564;SDS011;38460;53.106;7.004;2022-08-21T06:14:37;11.57;;;7.63;;
52564;SDS011;38460;53.106;7.004;2022-08-21T06:17:05;10.38;;;7.45;;
52564;SDS011;38460;53.106;7.004;2022-08-21T06:19:33;11.93;;;7.93;;
52564;SDS011;38460;53.106;7.004;2022-08-21T06:21:59;12.13;;;6.93;;
52564;SDS011;38460;53.106;7.004;2022-08-21T06:24:26;11.07;;;6.90;;
52564;SDS011;38460;53.106;7.004;2022-08-21T06:26:52;9.65;;;7.57;;
52564;SDS011;38460;53.106;7.004;2022-08-21T06:29:18;11.98;;;7.88;;
52564;SDS011;38460;53.106;7.004;2022-08-21T06:31:45;13.52;;;8.20;;
52564;SDS011;38460;53.106;7.004;2022-08-21T06:34:12;11.40;;;7.45;;
52564;SDS011;38460;53.106;7.004;2022-08-21T06:36:39;12.18;;;7.90;;
52564;SDS011;38460;53.106;7.004;2022-08-21T06:39:04;11.02;;;7.03;;
52564;SDS011;38460;53.106;7.004;2022-08-21T06:41:31;12.45;;;7.45;;
52564;SDS011;38460;53.106;7.004;2022-08-21T06:43:57;12.77;;;7.60;;
52564;SDS011;38460;53.106;7.004;2022-08-21T06:46:23;12.45;;;6.97;;
52564;SDS011;38460;53.106;7.004;2022-08-21T06:48:51;12.65;;;7.28;;
52564;SDS011;38460;53.106;7.004;2022-08-21T06:51:17;12.30;;;7.53;;
52564;SDS011;38460;53.106;7.004;2022-08-21T06:53:44;9.90;;;6.13;;
52564;SDS011;38460;53.106;7.004;2022-08-21T06:56:10;9.60;;;6.55;;
52564;SDS011;38460;53.106;7.004;2022-08-21T06:58:35;8.93;;;5.88;;
52564;SDS011;38460;53.106;7.004;2022-08-21T07:01:01;11.27;;;6.25;;
52564;SDS011;38460;53.106;7.004;2022-08-21T07:03:35;9.75;;;6.90;;
52564;SDS011;38460;53.106;7.004;2022-08-21T07:06:04;12.10;;;6.82;;
52564;SDS011;38460;53.106;7.004;2022-08-21T07:08:31;12.27;;;6.10;;
52564;SDS011;38460;53.106;7.004;2022-08-21T07:10:58;11.80;;;5.80;;
52564;SDS011;38460;53.106;7.004;2022-08-21T07:13:25;10.57;;;6.50;;
52564;SDS011;38460;53.106;7.004;2022-08-21T07:15:52;12.07;;;6.72;;
52564;SDS011;38460;53.106;7.004;2022-08-21T07:18:17;12.90;;;6.32;;
52564;SDS011;38460;53.106;7.004;2022-08-21T07:20:44;9.10;;;5.97;;
52564;SDS011;38460;53.106;7.004;2022-08-21T07:23:11;10.68;;;6.15;;
52564;SDS011;38460;53.106;7.004;2022-08-21T07:25:46;10.52;;;5.68;;
52564;SDS011;38460;53.106;7.004;2022-08-21T07:28:11;10.32;;;5.45;;
52564;SDS011;38460;53.106;7.004;2022-08-21T07:30:37;15.52;;;6.07;;
52564;SDS011;38460;53.106;7.004;2022-08-21T07:33:03;14.27;;;5.38;;
52564;SDS011;38460;53.106;7.004;2022-08-21T07:35:29;7.95;;;5.20;;
52564;SDS011;38460;53.106;7.004;2022-08-21T07:37:56;9.02;;;4.70;;
52564;SDS011;38460;53.106;7.004;2022-08-21T07:40:21;10.85;;;5.25;;
52564;SDS011;38460;53.106;7.004;2022-08-21T07:42:48;11.23;;;4.18;;
52564;SDS011;38460;53.106;7.004;2022-08-21T07:45:17;9.88;;;4.50;;
52564;SDS011;38460;53.106;7.004;2022-08-21T07:47:44;9.25;;;4.80;;
52564;SDS011;38460;53.106;7.004;2022-08-21T07:50:11;10.65;;;4.00;;
52564;SDS011;38460;53.106;7.004;2022-08-21T07:52:38;10.95;;;3.78;;
52564;SDS011;38460;53.106;7.004;2022-08-21T07:55:04;10.90;;;5.18;;
52564;SDS011;38460;53.106;7.004;2022-08-21T07:57:31;10.45;;;4.10;;
52564;SDS011;38460;53.106;7.004;2022-08-21T07:59:56;7.75;;;3.92;;
52564;SDS011;38460;53.106;7.004;2022-08-21T08:02:23;9.10;;;3.50;;
52564;SDS011;38460;53.106;7.004;2022-08-21T08:04:50;9.05;;;3.38;;
52564;SDS011;38460;53.106;7.004;2022-08-21T08:07:16;10.55;;;3.70;;
52564;SDS011;38460;53.106;7.004;2022-08-21T08:09:42;7.10;;;2.95;;
52564;SDS011;38460;53.106;7.004;2022-08-21T08:12:08;12.88;;;4.03;;
52564;SDS011;38460;53.106;7.004;2022-08-21T08:14:34;10.60;;;3.58;;
52564;SDS011;38460;53.106;7.004;2022-08-21T08:17:00;7.20;;;4.00;;
52564;SDS011;38460;53.106;7.004;2022-08-21T08:19:27;9.93;;;3.58;;
52564;SDS011;38460;53.106;7.004;2022-08-21T08:21:53;6.13;;;3.00;;
52564;SDS011;38460;53.106;7.004;2022-08-21T08:24:19;6.15;;;3.72;;
52564;SDS011;38460;53.106;7.004;2022-08-21T08:26:45;8.63;;;3.53;;
52564;SDS011;38460;53.106;7.004;2022-08-21T08:29:11;6.00;;;3.00;;
52564;SDS011;38460;53.106;7.004;2022-08-21T08:31:37;5.82;;;3.40;;
52564;SDS011;38460;53.106;7.004;2022-08-21T08:34:03;6.80;;;3.42;;
52564;SDS011;38460;53.106;7.004;2022-08-21T08:36:36;9.60;;;3.28;;
52564;SDS011;38460;53.106;7.004;2022-08-21T08:39:03;8.48;;;3.13;;
52564;SDS011;38460;53.106;7.004;2022-08-21T08:41:29;7.68;;;3.00;;
52564;SDS011;38460;53.106;7.004;2022-08-21T08:44:04;10.60;;;3.50;;
52564;SDS011;38460;53.106;7.004;2022-08-21T08:46:41;6.80;;;3.10;;
52564;SDS011;38460;53.106;7.004;2022-08-21T08:54:50;8.38;;;2.80;;
52564;SDS011;38460;53.106;7.004;2022-08-21T08:57:23;14.63;;;2.83;;
52564;SDS011;38460;53.106;7.004;2022-08-21T08:59:51;8.52;;;2.95;;
52564;SDS011;38460;53.106;7.004;2022-08-21T09:02:20;7.55;;;2.78;;
52564;SDS011;38460;53.106;7.004;2022-08-21T09:04:48;5.68;;;2.72;;
52564;SDS011;38460;53.106;7.004;2022-08-21T09:20:47;7.55;;;2.72;;
52564;SDS011;38460;53.106;7.004;2022-08-21T09:23:36;10.93;;;3.10;;
52564;SDS011;38460;53.106;7.004;2022-08-21T09:26:19;6.63;;;2.70;;
52564;SDS011;38460;53.106;7.004;2022-08-21T09:28:52;6.57;;;2.50;;
52564;SDS011;38460;53.106;7.004;2022-08-21T09:33:50;10.43;;;2.90;;
52564;SDS011;38460;53.106;7.004;2022-08-21T09:38:51;7.00;;;2.63;;
52564;SDS011;38460;53.106;7.004;2022-08-21T09:41:25;5.80;;;2.60;;
52564;SDS011;38460;53.106;7.004;2022-08-21T09:43:53;8.95;;;3.20;;
52564;SDS011;38460;53.106;7.004;2022-08-21T09:46:28;7.30;;;2.72;;
52564;SDS011;38460;53.106;7.004;2022-08-21T09:48:59;6.55;;;2.60;;
52564;SDS011;38460;53.106;7.004;2022-08-21T09:51:27;5.78;;;2.35;;
52564;SDS011;38460;53.106;7.004;2022-08-21T09:56:34;6.78;;;2.35;;
52564;SDS011;38460;53.106;7.004;2022-08-21T09:59:31;6.07;;;3.15;;
52564;SDS011;38460;53.106;7.004;2022-08-21T10:02:00;9.57;;;2.83;;
52564;SDS011;38460;53.106;7.004;2022-08-21T10:04:29;5.18;;;2.13;;
52564;SDS011;38460;53.106;7.004;2022-08-21T10:07:11;9.65;;;2.85;;
52564;SDS011;38460;53.106;7.004;2022-08-21T10:12:21;6.53;;;2.60;;
52564;SDS011;38460;53.106;7.004;2022-08-21T10:20:52;6.22;;;2.40;;
52564;SDS011;38460;53.106;7.004;2022-08-21T10:37:11;4.80;;;2.13;;
52564;SDS011;38460;53.106;7.004;2022-08-21T10:40:13;6.00;;;2.65;;
52564;SDS011;38460;53.106;7.004;2022-08-21T10:43:29;7.53;;;2.58;;
52564;SDS011;38460;53.106;7.004;2022-08-21T10:48:06;5.05;;;1.60;;
52564;SDS011;38460;53.106;7.004;2022-08-21T10:53:19;4.82;;;1.70;;
52564;SDS011;38460;53.106;7.004;2022-08-21T10:55:59;5.88;;;1.83;;
52564;SDS011;38460;53.106;7.004;2022-08-21T10:58:58;5.60;;;1.90;;
52564;SDS011;38460;53.106;7.004;2022-08-21T11:01:48;7.38;;;2.38;;
52564;SDS011;38460;53.106;7.004;2022-08-21T11:04:48;8.50;;;2.13;;
52564;SDS011;38460;53.106;7.004;2022-08-21T11:07:26;4.70;;;1.80;;
52564;SDS011;38460;53.106;7.004;2022-08-21T11:09:55;5.78;;;1.98;;
52564;SDS011;38460;53.106;7.004;2022-08-21T11:15:07;4.50;;;1.98;;
52564;SDS011;38460;53.106;7.004;2022-08-21T11:18:14;4.55;;;1.67;;
52564;SDS011;38460;53.106;7.004;2022-08-21T11:21:01;3.70;;;1.50;;
52564;SDS011;38460;53.106;7.004;2022-08-21T11:23:49;6.05;;;1.67;;
52564;SDS011;38460;53.106;7.004;2022-08-21T11:27:03;5.38;;;1.92;;
52564;SDS011;38460;53.106;7.004;2022-08-21T11:43:05;5.30;;;1.70;;
52564;SDS011;38460;53.106;7.004;2022-08-21T11:46:28;5.05;;;1.63;;
52564;SDS011;38460;53.106;7.004;2022-08-21T11:48:39;5.47;;;1.63;;
52564;SDS011;38460;53.106;7.004;2022-08-21T11:51:26;4.93;;;1.50;;
52564;SDS011;38460;53.106;7.004;2022-08-21T11:54:03;3.92;;;1.40;;
52564;SDS011;38460;53.106;7.004;2022-08-21T11:56:57;4.40;;;1.60;;
52564;SDS011;38460;53.106;7.004;2022-08-21T11:59:36;7.40;;;1.52;;
52564;SDS011;38460;53.106;7.004;2022-08-21T12:02:03;4.53;;;1.83;;
52564;SDS011;38460;53.106;7.004;2022-08-21T12:04:46;4.30;;;1.90;;
52564;SDS011;38460;53.106;7.004;2022-08-21T12:07:32;4.65;;;1.60;;
52564;SDS011;38460;53.106;7.004;2022-08-21T12:09:58;5.38;;;1.83;;
52564;SDS011;38460;53.106;7.004;2022-08-21T12:12:29;3.78;;;1.50;;
52564;SDS011;38460;53.106;7.004;2022-08-21T12:20:35;4.65;;;1.67;;
52564;SDS011;38460;53.106;7.004;2022-08-21T12:23:03;5.38;;;1.60;;
52564;SDS011;38460;53.106;7.004;2022-08-21T12:25:44;6.68;;;1.80;;
52564;SDS011;38460;53.106;7.004;2022-08-21T12:28:14;5.40;;;1.95;;
52564;SDS011;38460;53.106;7.004;2022-08-21T12:30:46;4.25;;;1.25;;
52564;SDS011;38460;53.106;7.004;2022-08-21T12:33:27;4.18;;;1.45;;
52564;SDS011;38460;53.106;7.004;2022-08-21T12:36:09;5.33;;;1.43;;
52564;SDS011;38460;53.106;7.004;2022-08-21T12:38:46;5.30;;;1.95;;
52564;SDS011;38460;53.106;7.004;2022-08-21T12:41:41;5.00;;;1.75;;
52564;SDS011;38460;53.106;7.004;2022-08-21T12:44:17;4.15;;;1.70;;
52564;SDS011;38460;53.106;7.004;2022-08-21T12:46:59;3.85;;;2.05;;
52564;SDS011;38460;53.106;7.004;2022-08-21T12:49:36;3.38;;;1.75;;
52564;SDS011;38460;53.106;7.004;2022-08-21T12:52:11;3.95;;;1.83;;
52564;SDS011;38460;53.106;7.004;2022-08-21T12:54:45;4.88;;;2.03;;
52564;SDS011;38460;53.106;7.004;2022-08-21T12:57:18;6.00;;;2.22;;
52564;SDS011;38460;53.106;7.004;2022-08-21T12:59:50;4.47;;;1.42;;
52564;SDS011;38460;53.106;7.004;2022-08-21T13:02:18;6.05;;;1.65;;
52564;SDS011;38460;53.106;7.004;2022-08-21T13:04:47;4.65;;;1.80;;
52564;SDS011;38460;53.106;7.004;2022-08-21T13:07:15;10.35;;;2.00;;
52564;SDS011;38460;53.106;7.004;2022-08-21T13:09:49;5.57;;;1.65;;
52564;SDS011;38460;53.106;7.004;2022-08-21T13:12:20;7.72;;;2.05;;
52564;SDS011;38460;53.106;7.004;2022-08-21T13:14:48;3.67;;;1.70;;
52564;SDS011;38460;53.106;7.004;2022-08-21T13:17:24;5.72;;;1.80;;
52564;SDS011;38460;53.106;7.004;2022-08-21T13:19:59;8.02;;;2.30;;
52564;SDS011;38460;53.106;7.004;2022-08-21T13:22:29;7.43;;;2.65;;
52564;SDS011;38460;53.106;7.004;2022-08-21T13:24:55;4.25;;;1.92;;
52564;SDS011;38460;53.106;7.004;2022-08-21T13:27:25;5.75;;;2.40;;
52564;SDS011;38460;53.106;7.004;2022-08-21T13:32:30;5.65;;;1.90;;
52564;SDS011;38460;53.106;7.004;2022-08-21T13:34:58;4.30;;;2.00;;
52564;SDS011;38460;53.106;7.004;2022-08-21T13:37:32;6.03;;;2.38;;
52564;SDS011;38460;53.106;7.004;2022-08-21T13:39:58;5.43;;;2.10;;
52564;SDS011;38460;53.106;7.004;2022-08-21T13:42:24;5.00;;;1.90;;
52564;SDS011;38460;53.106;7.004;2022-08-21T13:44:50;6.07;;;1.90;;
52564;SDS011;38460;53.106;7.004;2022-08-21T13:47:18;4.50;;;2.15;;
52564;SDS011;38460;53.106;7.004;2022-08-21T13:49:49;6.05;;;2.08;;
52564;SDS011;38460;53.106;7.004;2022-08-21T13:52:21;5.20;;;2.03;;
52564;SDS011;38460;53.106;7.004;2022-08-21T13:54:57;4.97;;;1.80;;
52564;SDS011;38460;53.106;7.004;2022-08-21T13:57:37;3.63;;;1.80;;
52564;SDS011;38460;53.106;7.004;2022-08-21T14:00:10;4.55;;;1.90;;
52564;SDS011;38460;53.106;7.004;2022-08-21T14:02:41;5.28;;;1.98;;
52564;SDS011;38460;53.106;7.004;2022-08-21T14:05:14;3.55;;;2.03;;
52564;SDS011;38460;53.106;7.004;2022-08-21T14:08:03;6.28;;;2.20;;
52564;SDS011;38460;53.106;7.004;2022-08-21T14:10:42;4.47;;;2.10;;
52564;SDS011;38460;53.106;7.004;2022-08-21T14:16:20;5.95;;;2.28;;
52564;SDS011;38460;53.106;7.004;2022-08-21T14:18:52;5.68;;;2.30;;
52564;SDS011;38460;53.106;7.004;2022-08-21T14:21:28;5.38;;;1.92;;
52564;SDS011;38460;53.106;7.004;2022-08-21T14:26:36;6.07;;;1.75;;
52564;SDS011;38460;53.106;7.004;2022-08-21T14:29:11;5.90;;;2.20;;
52564;SDS011;38460;53.106;7.004;2022-08-21T14:31:39;5.07;;;2.15;;
52564;SDS011;38460;53.106;7.004;2022-08-21T14:34:05;5.45;;;2.50;;
52564;SDS011;38460;53.106;7.004;2022-08-21T14:36:31;3.75;;;2.13;;
52564;SDS011;38460;53.106;7.004;2022-08-21T14:38:56;4.65;;;1.92;;
52564;SDS011;38460;53.106;7.004;2022-08-21T14:41:23;4.82;;;1.80;;
52564;SDS011;38460;53.106;7.004;2022-08-21T14:43:53;3.85;;;1.98;;
52564;SDS011;38460;53.106;7.004;2022-08-21T14:46:22;7.93;;;2.15;;
52564;SDS011;38460;53.106;7.004;2022-08-21T14:48:49;4.57;;;2.30;;
52564;SDS011;38460;53.106;7.004;2022-08-21T14:51:16;6.03;;;2.10;;
52564;SDS011;38460;53.106;7.004;2022-08-21T14:53:41;5.60;;;1.95;;
52564;SDS011;38460;53.106;7.004;2022-08-21T14:56:08;4.25;;;1.85;;
52564;SDS011;38460;53.106;7.004;2022-08-21T14:58:36;6.32;;;2.20;;
52564;SDS011;38460;53.106;7.004;2022-08-21T15:01:05;5.20;;;2.00;;
52564;SDS011;38460;53.106;7.004;2022-08-21T15:03:32;6.43;;;2.40;;
52564;SDS011;38460;53.106;7.004;2022-08-21T15:05:58;7.15;;;1.90;;
52564;SDS011;38460;53.106;7.004;2022-08-21T15:08:24;4.88;;;1.90;;
52564;SDS011;38460;53.106;7.004;2022-08-21T15:10:51;6.60;;;1.95;;
52564;SDS011;38460;53.106;7.004;2022-08-21T15:13:18;3.70;;;1.73;;
52564;SDS011;38460;53.106;7.004;2022-08-21T15:15:45;5.30;;;2.05;;
52564;SDS011;38460;53.106;7.004;2022-08-21T15:18:12;5.47;;;1.95;;
52564;SDS011;38460;53.106;7.004;2022-08-21T15:20:38;3.42;;;2.25;;
52564;SDS011;38460;53.106;7.004;2022-08-21T15:23:05;4.95;;;1.88;;
52564;SDS011;38460;53.106;7.004;2022-08-21T15:25:32;5.13;;;1.70;;
52564;SDS011;38460;53.106;7.004;2022-08-21T15:27:59;4.53;;;1.77;;
52564;SDS011;38460;53.106;7.004;2022-08-21T15:30:25;6.82;;;2.30;;
52564;SDS011;38460;53.106;7.004;2022-08-21T15:32:51;4.32;;;1.83;;
52564;SDS011;38460;53.106;7.004;2022-08-21T15:35:17;5.03;;;1.83;;
52564;SDS011;38460;53.106;7.004;2022-08-21T15:37:43;7.95;;;2.03;;
52564;SDS011;38460;53.106;7.004;2022-08-21T15:40:09;5.15;;;1.92;;
52564;SDS011;38460;53.106;7.004;2022-08-21T15:42:35;4.90;;;2.13;;
52564;SDS011;38460;53.106;7.004;2022-08-21T15:45:03;5.05;;;1.80;;
52564;SDS011;38460;53.106;7.004;2022-08-21T15:47:34;4.72;;;1.70;;
52564;SDS011;38460;53.106;7.004;2022-08-21T15:50:02;6.68;;;2.00;;
52564;SDS011;38460;53.106;7.004;2022-08-21T15:52:30;3.78;;;1.52;;
52564;SDS011;38460;53.106;7.004;2022-08-21T15:54:56;6.57;;;2.95;;
52564;SDS011;38460;53.106;7.004;2022-08-21T15:57:22;7.63;;;2.08;;
52564;SDS011;38460;53.106;7.004;2022-08-21T15:59:50;7.72;;;2.25;;
52564;SDS011;38460;53.106;7.004;2022-08-21T16:02:22;6.65;;;1.92;;
52564;SDS011;38460;53.106;7.004;2022-08-21T16:04:50;7.75;;;2.20;;
52564;SDS011;38460;53.106;7.004;2022-08-21T16:07:16;5.65;;;2.10;;
52564;SDS011;38460;53.106;7.004;2022-08-21T16:09:42;6.30;;;1.85;;
52564;SDS011;38460;53.106;7.004;2022-08-21T16:12:08;6.35;;;2.30;;
52564;SDS011;38460;53.106;7.004;2022-08-21T16:14:37;7.15;;;2.50;;
52564;SDS011;38460;53.106;7.004;2022-08-21T16:17:04;5.15;;;1.88;;
52564;SDS011;38460;53.106;7.004;2022-08-21T16:19:31;4.80;;;1.98;;
52564;SDS011;38460;53.106;7.004;2022-08-21T16:21:58;4.80;;;1.83;;
52564;SDS011;38460;53.106;7.004;2022-08-21T16:24:24;5.95;;;1.92;;